Time;durP1;ratioP1;P1;durP2;ratioP2;P2;SDS_P1;SDS_P2;PMS_P1;PMS_P2;Temp;Humidity;BMP_temperature;BMP_pressure;BME280_temperature;BME280_humidity;BME280_pressure;Samples;Min_cycle;Max_cycle;Signal;HPM_P1;HPM_P2
2021/12/10 00:09:33;;;;;;;7.28;3.50;;;4.00;99.90;;;;;;20802862;28;20037;-42
2021/12/10 00:19:41;;;;;;;7.60;2.13;;;3.80;99.90;;;;;;20752418;28;20060;-42
2021/12/10 00:29:49;;;;;;;5.75;2.28;;;3.90;99.90;;;;;;20752588;28;20036;-42
2021/12/10 00:39:54;;;;;;;7.30;2.10;;;3.80;99.90;;;;;;20743905;28;20572;-42
2021/12/10 00:49:55;;;;;;;9.10;2.95;;;3.80;99.90;;;;;;20747432;28;20052;-42
2021/12/10 00:59:59;;;;;;;12.02;3.75;;;3.70;99.90;;;;;;20748809;28;20493;-42
2021/12/10 01:10:10;;;;;;;6.20;2.60;;;3.70;99.90;;;;;;20743439;28;20038;-42
2021/12/10 01:30:39;;;;;;;8.88;3.38;;;3.70;99.90;;;;;;20753951;28;20060;-42
2021/12/10 01:40:47;;;;;;;10.82;3.92;;;3.70;99.90;;;;;;20756340;28;20053;-42
2021/12/10 01:50:50;;;;;;;10.88;3.33;;;3.70;99.90;;;;;;20751050;28;20503;-42
2021/12/10 02:01:00;;;;;;;9.38;3.05;;;3.60;99.90;;;;;;20760323;28;20128;-42
2021/12/10 02:11:02;;;;;;;9.70;2.05;;;3.70;99.90;;;;;;20747543;28;20039;-42
2021/12/10 02:21:03;;;;;;;4.82;2.47;;;3.70;99.90;;;;;;20760705;28;20041;-42
2021/12/10 02:31:07;;;;;;;6.28;2.40;;;3.70;99.90;;;;;;20755213;28;20764;-42
2021/12/10 02:41:09;;;;;;;4.43;1.60;;;3.70;99.90;;;;;;20734189;28;20069;-42
2021/12/10 02:51:11;;;;;;;3.22;1.40;;;3.70;99.90;;;;;;20753002;28;20048;-42
2021/12/10 03:01:21;;;;;;;3.83;1.48;;;3.60;99.90;;;;;;20751087;28;20049;-42
2021/12/10 03:11:30;;;;;;;8.65;1.52;;;3.60;99.90;;;;;;20756689;28;20045;-42
2021/12/10 03:21:31;;;;;;;4.45;1.65;;;3.70;99.90;;;;;;20754637;28;20036;-42
2021/12/10 03:31:33;;;;;;;10.32;1.60;;;3.70;99.90;;;;;;20754603;28;20037;-42
2021/12/10 03:41:37;;;;;;;8.73;1.75;;;3.70;99.90;;;;;;20798917;28;20536;-42
2021/12/10 03:51:39;;;;;;;7.63;2.10;;;3.80;99.90;;;;;;20785325;28;20377;-42
2021/12/10 04:01:44;;;;;;;2.85;1.10;;;3.80;99.90;;;;;;20800084;28;20049;-42
2021/12/10 04:11:45;;;;;;;2.88;1.23;;;3.90;99.90;;;;;;20805613;28;20099;-42
2021/12/10 04:21:46;;;;;;;2.22;1.02;;;3.80;99.90;;;;;;20811717;28;20037;-42
2021/12/10 04:31:51;;;;;;;1.70;0.90;;;4.00;99.90;;;;;;20813183;28;20041;-41
2021/12/10 04:41:52;;;;;;;6.25;0.73;;;4.10;99.90;;;;;;20816139;28;20041;-42
2021/12/10 04:51:57;;;;;;;5.22;1.38;;;4.00;99.90;;;;;;20819081;28;20037;-41
2021/12/10 05:02:00;;;;;;;2.25;0.70;;;4.00;99.90;;;;;;20819440;28;20476;-42
2021/12/10 05:12:02;;;;;;;2.50;1.10;;;3.90;99.90;;;;;;20832853;28;20507;-41
2021/12/10 05:22:07;;;;;;;2.95;0.80;;;3.80;99.90;;;;;;20829091;28;20049;-42
2021/12/10 05:32:09;;;;;;;4.35;0.80;;;3.80;99.90;;;;;;20824617;28;20158;-41
2021/12/10 05:42:10;;;;;;;2.53;0.98;;;3.80;99.90;;;;;;20826999;28;20063;-42
2021/12/10 05:52:11;;;;;;;4.40;1.30;;;3.80;99.90;;;;;;20822358;28;20038;-42
2021/12/10 06:02:13;;;;;;;2.47;0.68;;;3.80;99.90;;;;;;20817586;28;20056;-42
2021/12/10 06:12:15;;;;;;;4.47;1.08;;;3.80;99.90;;;;;;20817782;28;20029;-42
2021/12/10 06:22:16;;;;;;;1.90;1.13;;;3.70;99.90;;;;;;20810819;28;20558;-41
2021/12/10 06:32:17;;;;;;;4.68;0.75;;;3.80;99.90;;;;;;20807126;28;20144;-42
2021/12/10 06:42:18;;;;;;;3.85;0.95;;;3.90;99.90;;;;;;20803260;28;20941;-41
2021/12/10 06:52:19;;;;;;;1.75;1.05;;;3.90;99.90;;;;;;20811724;28;20029;-41
2021/12/10 07:02:23;;;;;;;3.85;1.00;;;4.00;99.90;;;;;;20810711;28;20383;-42
2021/12/10 07:12:24;;;;;;;6.90;0.77;;;4.10;99.90;;;;;;20818702;28;20037;-41
2021/12/10 07:22:25;;;;;;;2.92;0.57;;;4.10;99.90;;;;;;20811855;28;20397;-42
2021/12/10 07:32:28;;;;;;;1.92;0.70;;;4.10;99.90;;;;;;20819414;28;20037;-42
2021/12/10 07:42:29;;;;;;;1.00;0.40;;;4.00;99.90;;;;;;20831543;28;20045;-42
2021/12/10 07:52:34;;;;;;;1.38;0.50;;;4.20;99.90;;;;;;20829485;28;20398;-42
2021/12/10 08:02:38;;;;;;;1.88;0.30;;;4.20;99.90;;;;;;20830675;28;20055;-42
2021/12/10 08:12:39;;;;;;;3.50;0.63;;;4.20;99.90;;;;;;20828711;28;20400;-45
2021/12/10 08:22:41;;;;;;;2.80;0.68;;;4.20;99.90;;;;;;20824244;28;20052;-42
2021/12/10 08:32:43;;;;;;;4.07;0.90;;;4.20;99.90;;;;;;20826622;28;20042;-48
2021/12/10 08:42:45;;;;;;;2.22;0.60;;;4.20;99.90;;;;;;20848224;28;20132;-42
2021/12/10 08:52:46;;;;;;;2.17;0.70;;;4.30;99.90;;;;;;20850690;28;20038;-42
2021/12/10 09:02:50;;;;;;;5.82;0.90;;;4.30;99.90;;;;;;20846804;28;20112;-42
2021/12/10 09:12:51;;;;;;;4.35;1.23;;;4.30;99.90;;;;;;20834205;28;20029;-41
2021/12/10 09:22:53;;;;;;;4.10;0.93;;;4.40;99.90;;;;;;20838287;28;20032;-42
2021/12/10 09:32:54;;;;;;;4.82;0.60;;;4.40;99.90;;;;;;20825895;28;20044;-41
2021/12/10 09:42:56;;;;;;;3.13;1.02;;;4.50;99.90;;;;;;20824055;28;20046;-42
2021/12/10 09:52:59;;;;;;;5.63;1.50;;;4.40;99.90;;;;;;20822094;28;20961;-42
2021/12/10 10:03:00;;;;;;;8.15;1.15;;;4.40;99.90;;;;;;20822095;28;20041;-42
2021/12/10 10:13:04;;;;;;;4.72;1.40;;;4.40;99.90;;;;;;20826421;28;20044;-42
2021/12/10 10:23:07;;;;;;;3.72;1.48;;;4.40;99.90;;;;;;20824735;28;20076;-42
2021/12/10 10:33:11;;;;;;;3.28;1.13;;;4.40;99.90;;;;;;20823120;28;20065;-42
2021/12/10 10:43:12;;;;;;;2.65;0.90;;;4.50;99.90;;;;;;20826953;28;20378;-42
2021/12/10 10:53:16;;;;;;;3.35;1.02;;;4.40;99.90;;;;;;20828057;28;20627;-42
2021/12/10 11:03:22;;;;;;;5.15;1.08;;;4.50;99.90;;;;;;20830526;28;20713;-42
2021/12/10 11:13:25;;;;;;;2.63;0.90;;;4.60;99.90;;;;;;20826566;28;20040;-42
2021/12/10 11:23:26;;;;;;;2.42;0.95;;;4.70;99.90;;;;;;20823210;28;20048;-42
2021/12/10 11:33:27;;;;;;;2.75;1.02;;;4.80;99.90;;;;;;20792830;28;20046;-42
2021/12/10 11:44:07;;;;;;;3.17;1.10;;;4.90;99.90;;;;;;20781522;28;20052;-42
2021/12/10 11:54:36;;;;;;;2.85;1.00;;;5.00;99.90;;;;;;20786011;28;20301;-42
2021/12/10 12:04:46;;;;;;;3.28;1.25;;;5.00;99.90;;;;;;20788000;28;20416;-42
2021/12/10 12:14:52;;;;;;;5.80;1.42;;;5.00;99.90;;;;;;20810361;28;20049;-42
2021/12/10 12:25:27;;;;;;;3.33;1.30;;;4.90;99.90;;;;;;20821755;28;20034;-42
2021/12/10 12:35:24;;;;;;;;;;;5.00;99.90;;;;;;20796418;28;20042;-42
2021/12/10 12:45:26;;;;;;;3.00;0.98;;;5.00;99.90;;;;;;20815186;28;19925;-42
2021/12/10 12:55:40;;;;;;;5.72;1.77;;;4.90;99.90;;;;;;20817379;28;20045;-42
2021/12/10 13:06:13;;;;;;;3.47;0.85;;;4.90;99.90;;;;;;20833166;28;21139;-42
2021/12/10 13:16:45;;;;;;;2.15;1.45;;;5.00;99.90;;;;;;20806396;28;20489;-42
2021/12/10 13:26:47;;;;;;;2.38;0.65;;;5.00;99.90;;;;;;20839855;28;20525;-42
2021/12/10 13:36:48;;;;;;;2.88;0.90;;;5.00;99.90;;;;;;20842841;28;20064;-42
2021/12/10 13:46:53;;;;;;;1.88;0.90;;;5.00;99.90;;;;;;20843553;28;20053;-42
2021/12/10 13:56:58;;;;;;;2.80;1.27;;;5.00;99.90;;;;;;20846064;28;20037;-42
2021/12/10 14:07:13;;;;;;;1.95;0.70;;;5.10;99.90;;;;;;20855141;28;20041;-42
2021/12/10 14:17:24;;;;;;;4.20;1.23;;;5.10;99.90;;;;;;20848485;28;20412;-42
2021/12/10 14:27:27;;;;;;;2.42;1.08;;;5.10;99.90;;;;;;20816610;28;20033;-42
2021/12/10 14:37:44;;;;;;;3.20;0.80;;;5.10;99.90;;;;;;20815785;28;20536;-42
2021/12/10 14:48:10;;;;;;;3.28;0.77;;;5.10;99.90;;;;;;20822241;28;21624;-42
2021/12/10 14:58:13;;;;;;;1.70;0.80;;;5.00;99.90;;;;;;20812959;28;20048;-42
2021/12/10 15:08:33;;;;;;;1.70;1.08;;;5.00;99.90;;;;;;20817032;28;20076;-42
2021/12/10 15:18:42;;;;;;;4.07;1.05;;;5.00;99.90;;;;;;20813525;28;20045;-42
2021/12/10 15:28:43;;;;;;;2.80;1.10;;;5.00;99.90;;;;;;20817110;28;20056;-42
2021/12/10 15:38:46;;;;;;;2.97;1.30;;;4.90;99.90;;;;;;20812670;28;20053;-42
2021/12/10 15:48:51;;;;;;;5.75;1.00;;;4.90;99.90;;;;;;20815680;28;20311;-42
2021/12/10 15:58:52;;;;;;;2.50;1.40;;;4.90;99.90;;;;;;20814561;28;20671;-42
2021/12/10 16:08:56;;;;;;;4.25;1.85;;;4.80;99.90;;;;;;20809879;28;20032;-42
2021/12/10 16:18:59;;;;;;;4.75;0.88;;;4.80;99.90;;;;;;20815337;28;20052;-42
2021/12/10 16:29:10;;;;;;;4.00;1.60;;;4.80;99.90;;;;;;20817289;28;20431;-42
2021/12/10 16:39:13;;;;;;;1.33;0.73;;;4.70;99.90;;;;;;20817393;28;20049;-44
2021/12/10 16:49:24;;;;;;;3.65;1.48;;;4.70;99.90;;;;;;20817010;28;20037;-42
2021/12/10 16:59:26;;;;;;;6.88;1.75;;;4.70;99.90;;;;;;20822271;28;20047;-42
2021/12/10 17:09:28;;;;;;;8.05;1.60;;;4.70;99.90;;;;;;20829323;28;20785;-42
2021/12/10 17:19:35;;;;;;;5.50;2.00;;;4.70;99.90;;;;;;20838753;28;20484;-42
2021/12/10 17:29:37;;;;;;;2.40;1.23;;;4.60;99.90;;;;;;20835877;28;20069;-42
2021/12/10 17:39:50;;;;;;;4.60;1.40;;;4.60;99.90;;;;;;20834440;28;20045;-42
2021/12/10 17:49:57;;;;;;;9.43;2.85;;;4.60;99.90;;;;;;20834777;28;20041;-42
2021/12/10 18:00:06;;;;;;;11.90;5.18;;;4.60;99.90;;;;;;20824235;28;20041;-42
2021/12/10 18:10:21;;;;;;;22.17;6.15;;;4.60;99.90;;;;;;20822612;28;21029;-42
2021/12/10 18:20:35;;;;;;;11.43;2.78;;;4.70;99.90;;;;;;20842410;28;20055;-42
2021/12/10 18:30:38;;;;;;;5.45;2.35;;;4.60;99.90;;;;;;20847449;28;20378;-42
2021/12/10 18:40:59;;;;;;;4.68;2.00;;;4.60;99.90;;;;;;20801251;28;20044;-42
2021/12/10 18:51:10;;;;;;;7.72;2.97;;;4.50;99.90;;;;;;20799586;28;20598;-42
2021/12/10 19:01:23;;;;;;;4.78;1.90;;;4.50;99.90;;;;;;20825201;28;20052;-42
2021/12/10 19:11:28;;;;;;;5.18;1.42;;;4.50;99.90;;;;;;20845200;28;20036;-43
2021/12/10 19:22:13;;;;;;;11.48;3.00;;;4.50;99.90;;;;;;20836826;28;22328;-42
2021/12/10 19:32:20;;;;;;;11.07;1.90;;;4.50;99.90;;;;;;20657744;28;20049;-42
2021/12/10 19:42:32;;;;;;;7.27;2.60;;;4.40;99.90;;;;;;20829343;28;20405;-43
2021/12/10 19:52:37;;;;;;;4.22;2.20;;;4.40;99.90;;;;;;20836854;28;20955;-43
2021/12/10 20:02:53;;;;;;;5.68;3.35;;;4.40;99.90;;;;;;20836090;28;20132;-42
2021/12/10 20:13:06;;;;;;;7.38;3.00;;;4.20;99.90;;;;;;20840688;28;20307;-42
2021/12/10 20:23:23;;;;;;;6.90;2.75;;;4.10;99.90;;;;;;20847426;28;20051;-42
2021/12/10 20:33:42;;;;;;;6.22;2.33;;;4.00;99.90;;;;;;20855825;28;20029;-42
2021/12/10 20:43:54;;;;;;;6.55;2.55;;;3.90;99.90;;;;;;20861119;28;20037;-42
2021/12/10 20:53:59;;;;;;;3.58;1.70;;;3.70;99.90;;;;;;20823077;28;21962;-42
2021/12/10 21:04:11;;;;;;;12.85;3.97;;;3.60;99.90;;;;;;20855286;28;20041;-43
2021/12/10 21:14:17;;;;;;;6.45;2.10;;;3.40;99.90;;;;;;20841271;28;20052;-42
2021/12/10 21:24:55;;;;;;;5.70;2.08;;;3.20;99.90;;;;;;20825792;28;20065;-42
2021/12/10 21:35:13;;;;;;;5.13;1.97;;;3.10;99.90;;;;;;20818323;28;20592;-42
2021/12/10 21:45:23;;;;;;;6.97;2.22;;;3.10;99.90;;;;;;20847632;28;20041;-42
2021/12/10 21:55:38;;;;;;;15.82;4.10;;;3.10;99.90;;;;;;20845812;28;20037;-42
2021/12/10 22:05:43;;;;;;;10.13;3.13;;;3.20;99.90;;;;;;20846260;28;20037;-43
2021/12/10 22:16:24;;;;;;;7.82;3.10;;;3.10;99.90;;;;;;20841986;28;20033;-42
2021/12/10 22:26:27;;;;;;;8.23;1.92;;;3.00;99.90;;;;;;20734911;28;20044;-42
2021/12/10 22:36:35;;;;;;;13.48;2.38;;;3.10;99.90;;;;;;20844687;28;20055;-42
2021/12/10 22:46:41;;;;;;;5.03;2.53;;;3.30;99.90;;;;;;20839641;28;20045;-42
2021/12/10 22:56:46;;;;;;;7.88;2.70;;;3.30;99.90;;;;;;20841920;28;20509;-43
2021/12/10 23:06:54;;;;;;;8.73;3.28;;;3.20;99.90;;;;;;20844160;28;21475;-42
2021/12/10 23:17:22;;;;;;;13.77;2.90;;;3.20;99.90;;;;;;20843067;28;20038;-42
2021/12/10 23:27:28;;;;;;;7.43;2.15;;;3.10;99.90;;;;;;20816985;28;20033;-42
2021/12/10 23:37:30;;;;;;;6.90;2.73;;;3.10;99.90;;;;;;20804662;28;20056;-42
2021/12/10 23:47:36;;;;;;;6.47;2.50;;;3.10;99.90;;;;;;20800911;28;20034;-42
2021/12/10 23:57:44;;;;;;;5.43;2.63;;;3.10;99.90;;;;;;20803837;28;20523;-42
